Time;durP1;ratioP1;P1;durP2;ratioP2;P2;SDS_P1;SDS_P2;PMS_P1;PMS_P2;Temp;Humidity;BMP_temperature;BMP_pressure;BME280_temperature;BME280_humidity;BME280_pressure;Samples;Min_cycle;Max_cycle;Signal;HPM_P1;HPM_P2
2022/05/30 00:00:20;;;;;;;;;1.00;1.00;;;;;18.60;44.74;97849.59;4870733;28;102025;-80
2022/05/30 00:02:48;;;;;;;;;1.00;1.00;;;;;18.59;45.07;97846.06;4843156;28;103382;-80
2022/05/30 00:05:16;;;;;;;;;1.67;0.67;;;;;18.60;44.93;97839.47;4858820;28;102141;-81
2022/05/30 00:07:43;;;;;;;;;1.00;1.00;;;;;18.58;45.25;97838.94;4859819;28;101737;-81
2022/05/30 00:10:10;;;;;;;;;1.33;1.33;;;;;18.57;45.07;97840.03;4863954;28;101806;-81
2022/05/30 00:12:37;;;;;;;;;1.00;1.00;;;;;18.57;44.92;97840.03;4861289;28;108435;-80
2022/05/30 00:15:06;;;;;;;;;1.33;1.33;;;;;18.55;44.78;97834.00;4861057;28;102108;-80
2022/05/30 00:17:33;;;;;;;;;1.00;1.00;;;;;18.55;45.17;97833.19;4869538;28;101786;-81
2022/05/30 00:20:01;;;;;;;;;1.00;1.00;;;;;18.52;45.25;97834.50;4864155;28;102188;-81
2022/05/30 00:22:28;;;;;;;;;1.00;1.00;;;;;18.55;44.87;97835.94;4872524;28;103739;-81
2022/05/30 00:24:55;;;;;;;;;1.00;1.00;;;;;18.53;44.78;97830.72;4867151;28;101822;-81
2022/05/30 00:27:22;;;;;;;;;0.33;0.33;;;;;18.55;45.25;97828.53;4863833;28;102783;-80
2022/05/30 00:29:49;;;;;;;;;1.00;1.00;;;;;18.54;44.83;97832.38;4868901;28;102864;-80
2022/05/30 00:32:18;;;;;;;;;1.00;1.00;;;;;18.54;45.13;97820.59;4861029;28;103467;-80
2022/05/30 00:34:45;;;;;;;;;1.00;1.00;;;;;18.55;45.15;97820.31;4867695;28;101803;-81
2022/05/30 00:37:12;;;;;;;;;0.00;0.00;;;;;18.55;45.17;97814.03;4874351;28;101840;-81
2022/05/30 00:39:39;;;;;;;;;1.00;1.00;;;;;18.55;44.73;97819.50;4861246;28;101891;-81
2022/05/30 00:42:16;;;;;;;;;1.33;1.00;;;;;18.52;45.04;97811.78;4864749;28;103563;-80
2022/05/30 00:44:44;;;;;;;;;1.67;1.67;;;;;18.51;44.54;97813.69;4860311;28;109341;-81
2022/05/30 00:47:12;;;;;;;;;1.00;1.00;;;;;18.52;45.12;97820.81;4859035;28;101820;-81
2022/05/30 00:49:41;;;;;;;;;1.00;1.00;;;;;18.51;45.04;97815.59;4847011;28;101848;-81
2022/05/30 00:52:11;;;;;;;;;1.00;1.00;;;;;18.50;44.92;97817.56;4846642;28;103441;-80
2022/05/30 00:54:51;;;;;;;;;1.00;1.00;;;;;18.49;45.40;97810.44;4821328;28;101883;-81
2022/05/30 00:57:22;;;;;;;;;1.00;1.00;;;;;18.50;44.55;97817.56;4824665;28;102321;-80
2022/05/30 01:00:11;;;;;;;;;0.33;0.33;;;;;18.49;44.42;97815.91;4872577;28;103327;-80
2022/05/30 01:02:40;;;;;;;;;1.00;1.00;;;;;18.49;44.75;97813.16;4840375;28;103254;-80
2022/05/30 01:07:55;;;;;;;;;1.00;1.00;;;;;18.50;45.41;97812.06;4848680;28;102039;-80
2022/05/30 01:10:22;;;;;;;;;1.00;1.00;;;;;18.51;45.11;97810.13;4751893;28;102217;-81
2022/05/30 01:12:52;;;;;;;;;1.00;1.00;;;;;18.50;44.67;97811.25;4832810;28;103367;-81
2022/05/30 01:15:22;;;;;;;;;1.00;1.00;;;;;18.49;44.87;97820.56;4861640;28;102186;-80
2022/05/30 01:17:52;;;;;;;;;1.00;1.00;;;;;18.48;45.18;97819.72;4852623;28;101798;-77
2022/05/30 01:20:27;;;;;;;;;1.00;1.00;;;;;18.47;44.91;97806.31;4866450;28;102813;-79
2022/05/30 01:23:01;;;;;;;;;1.00;1.00;;;;;18.46;44.77;97805.47;4838770;28;103482;-81
2022/05/30 01:25:58;;;;;;;;;0.00;0.00;;;;;18.45;45.16;97798.38;4863940;28;104358;-80
2022/05/30 01:28:34;;;;;;;;;0.33;0.33;;;;;18.45;45.13;97787.44;4864019;28;102314;-81
2022/05/30 01:31:01;;;;;;;;;2.00;1.00;;;;;18.46;45.42;97777.31;4846189;28;102435;-80
2022/05/30 01:33:29;;;;;;;;;1.67;1.00;;;;;18.46;44.77;97775.34;4857812;28;103761;-80
2022/05/30 01:35:56;;;;;;;;;1.00;1.00;;;;;18.45;44.64;97770.19;4865064;28;101854;-81
2022/05/30 01:38:24;;;;;;;;;1.00;1.00;;;;;18.45;45.35;97776.47;4857262;28;101692;-81
2022/05/30 01:40:51;;;;;;;;;1.33;1.33;;;;;18.46;44.76;97775.34;4853828;28;102195;-80
2022/05/30 01:43:18;;;;;;;;;0.67;0.67;;;;;18.46;45.22;97772.63;4856093;28;103408;-80
2022/05/30 01:45:46;;;;;;;;;0.33;0.33;;;;;18.46;45.00;97769.88;4862523;28;101862;-81
2022/05/30 01:48:13;;;;;;;;;1.00;1.00;;;;;18.45;44.74;97768.25;4855494;28;101913;-81
2022/05/30 01:50:40;;;;;;;;;1.00;1.00;;;;;18.46;45.10;97772.63;4863631;28;102468;-81
2022/05/30 01:53:12;;;;;;;;;1.00;1.00;;;;;18.45;45.29;97772.91;4853290;28;102748;-81
2022/05/30 01:55:39;;;;;;;;;2.00;1.00;;;;;18.44;45.25;97785.78;4864948;28;103696;-81
2022/05/30 01:58:06;;;;;;;;;1.00;0.00;;;;;18.43;44.56;97784.13;4823401;28;101773;-81
2022/05/30 02:00:33;;;;;;;;;1.00;1.00;;;;;18.42;44.81;97781.66;4868428;28;101786;-81
2022/05/30 02:03:00;;;;;;;;;1.33;1.33;;;;;18.43;44.78;97784.13;4869687;28;103422;-81
2022/05/30 02:05:30;;;;;;;;;1.00;1.00;;;;;18.42;45.42;97784.38;4868064;28;101753;-81
2022/05/30 02:07:57;;;;;;;;;0.00;0.00;;;;;18.41;45.17;97778.13;4862584;28;101972;-81
2022/05/30 02:10:24;;;;;;;;;1.00;1.00;;;;;18.44;44.86;97768.53;4866688;28;101905;-81
2022/05/30 02:12:52;;;;;;;;;1.00;0.00;;;;;18.43;45.06;97773.19;4862856;28;103350;-80
2022/05/30 02:15:19;;;;;;;;;0.00;0.00;;;;;18.43;44.79;97775.09;4869862;28;104531;-81
2022/05/30 02:17:46;;;;;;;;;1.00;1.00;;;;;18.44;44.48;97779.47;4868871;28;101787;-81
2022/05/30 02:20:13;;;;;;;;;0.67;0.67;;;;;18.43;45.18;97784.13;4868291;28;102035;-80
2022/05/30 02:22:40;;;;;;;;;1.00;1.00;;;;;18.39;45.26;97777.56;4865608;28;103423;-81
2022/05/30 02:25:07;;;;;;;;;1.00;1.00;;;;;18.42;45.10;97778.91;4861861;28;102540;-81
2022/05/30 02:27:34;;;;;;;;;1.67;1.67;;;;;18.42;45.27;97779.72;4868297;28;104351;-81
2022/05/30 02:30:01;;;;;;;;;1.67;1.00;;;;;18.40;44.71;97781.94;4866971;28;101745;-81
2022/05/30 02:32:28;;;;;;;;;0.67;0.67;;;;;18.37;45.47;97779.72;4862783;28;103036;-80
2022/05/30 02:37:41;;;;;;;;;1.00;1.00;;;;;18.39;44.72;97772.06;4870172;28;102674;-81
2022/05/30 02:40:08;;;;;;;;;1.00;1.00;;;;;18.38;44.89;97775.91;4864970;28;102102;-81
2022/05/30 02:42:35;;;;;;;;;1.00;1.00;;;;;18.39;45.03;97772.06;4869697;28;103747;-81
2022/05/30 02:45:03;;;;;;;;;0.00;0.00;;;;;18.40;45.03;97781.94;4865134;28;101762;-81
2022/05/30 02:47:30;;;;;;;;;1.00;1.00;;;;;18.40;45.26;97768.25;4863136;28;101766;-81
2022/05/30 02:49:57;;;;;;;;;1.00;1.00;;;;;18.39;44.70;97784.94;4865741;28;101958;-81
2022/05/30 02:52:23;;;;;;;;;1.00;1.00;;;;;18.39;45.30;97783.03;4865580;28;103424;-81
2022/05/30 02:54:50;;;;;;;;;0.00;0.00;;;;;18.40;45.27;97789.31;4861786;28;103255;-80
2022/05/30 02:57:17;;;;;;;;;2.00;1.00;;;;;18.39;44.65;97783.03;4872769;28;103016;-81
2022/05/30 02:59:44;;;;;;;;;1.00;1.00;;;;;18.38;44.71;97788.75;4871157;28;101903;-79
2022/05/30 03:02:11;;;;;;;;;1.00;1.00;;;;;18.36;45.34;97780.84;4860525;28;103433;-80
2022/05/30 03:04:38;;;;;;;;;1.00;1.00;;;;;18.37;45.06;97787.94;4867468;28;101804;-81
2022/05/30 03:07:05;;;;;;;;;0.67;0.67;;;;;18.33;45.35;97784.09;4873858;28;104662;-81
2022/05/30 03:09:32;;;;;;;;;1.00;1.00;;;;;18.34;44.77;97790.41;4872303;28;102084;-81
2022/05/30 03:11:59;;;;;;;;;1.00;1.00;;;;;18.34;45.43;97791.22;4867846;28;103562;-81
2022/05/30 03:14:26;;;;;;;;;1.33;1.33;;;;;18.35;45.42;97790.13;4872136;28;101888;-81
2022/05/30 03:16:53;;;;;;;;;1.00;1.00;;;;;18.35;45.02;97792.03;4853707;28;102078;-81
2022/05/30 03:19:20;;;;;;;;;1.00;1.00;;;;;18.35;45.34;97798.34;4868572;28;102331;-81
2022/05/30 03:21:47;;;;;;;;;1.00;1.00;;;;;18.35;44.89;97801.09;4865143;28;108140;-81
2022/05/30 03:24:14;;;;;;;;;1.00;1.00;;;;;18.36;44.60;97796.44;4863763;28;103029;-81
2022/05/30 03:26:41;;;;;;;;;1.00;1.00;;;;;18.35;44.75;97798.34;4866762;28;101664;-80
2022/05/30 03:29:08;;;;;;;;;1.00;0.00;;;;;18.35;44.63;97806.56;4851012;28;101834;-81
2022/05/30 03:31:35;;;;;;;;;1.00;1.00;;;;;18.36;45.31;97812.84;4873030;28;103330;-81
2022/05/30 03:34:02;;;;;;;;;2.00;1.00;;;;;18.34;45.23;97815.84;4868004;28;101794;-80
2022/05/30 03:36:29;;;;;;;;;1.00;1.00;;;;;18.34;44.56;97812.28;4871836;28;102048;-80
2022/05/30 03:38:56;;;;;;;;;1.00;1.00;;;;;18.34;44.99;97810.38;4869994;28;103877;-80
2022/05/30 03:41:23;;;;;;;;;1.00;1.00;;;;;18.32;44.94;97815.31;4859933;28;103561;-81
2022/05/30 03:43:50;;;;;;;;;1.00;1.00;;;;;18.32;44.93;97814.50;4873261;28;101814;-81
2022/05/30 03:46:17;;;;;;;;;0.67;0.67;;;;;18.33;45.37;97816.94;4861365;28;103637;-80
2022/05/30 03:48:44;;;;;;;;;1.00;1.00;;;;;18.31;44.87;97805.47;4870203;28;102114;-81
2022/05/30 03:51:12;;;;;;;;;1.00;1.00;;;;;18.34;45.42;97812.28;4866835;28;103450;-80
2022/05/30 03:53:40;;;;;;;;;1.00;1.00;;;;;18.32;45.13;97803.56;4866300;28;101774;-81
2022/05/30 03:56:07;;;;;;;;;1.00;1.00;;;;;18.33;45.02;97811.47;4868957;28;103713;-81
2022/05/30 03:58:34;;;;;;;;;1.00;1.00;;;;;18.33;45.26;97808.72;4870710;28;101808;-80
2022/05/30 04:01:03;;;;;;;;;1.00;1.00;;;;;18.31;44.57;97808.19;4867299;28;103416;-81
2022/05/30 04:03:30;;;;;;;;;1.00;0.33;;;;;18.34;44.85;97815.03;4838864;28;102108;-81
2022/05/30 04:05:57;;;;;;;;;1.00;1.00;;;;;18.33;45.36;97808.72;4869648;28;104682;-81
2022/05/30 04:08:24;;;;;;;;;2.00;1.00;;;;;18.29;44.89;97808.47;4854673;28;101974;-81
2022/05/30 04:10:51;;;;;;;;;1.00;1.00;;;;;18.28;44.77;97804.06;4876250;28;103206;-80
2022/05/30 04:13:18;;;;;;;;;1.33;1.33;;;;;18.28;44.89;97803.28;4838565;28;102044;-80
2022/05/30 04:15:44;;;;;;;;;1.00;1.00;;;;;18.24;45.16;97808.44;4866615;28;102097;-80
2022/05/30 04:18:12;;;;;;;;;1.00;1.00;;;;;18.24;44.86;97800.22;4868336;28;102802;-81
2022/05/30 04:20:41;;;;;;;;;1.00;1.00;;;;;18.26;44.49;97802.72;4858558;28;103706;-80
2022/05/30 04:23:08;;;;;;;;;0.00;0.00;;;;;18.29;44.77;97805.72;4852597;28;102363;-81
2022/05/30 04:25:35;;;;;;;;;1.67;1.00;;;;;18.28;44.77;97806.81;4837700;28;102653;-81
2022/05/30 04:28:02;;;;;;;;;1.00;1.00;;;;;18.27;44.36;97809.84;4835172;28;102188;-80
2022/05/30 04:30:30;;;;;;;;;0.00;0.00;;;;;18.28;44.47;97809.53;4867061;28;103732;-81
2022/05/30 04:32:57;;;;;;;;;0.00;0.00;;;;;18.29;44.96;97813.09;4866974;28;102144;-81
2022/05/30 04:35:24;;;;;;;;;2.00;2.00;;;;;18.29;44.51;97815.84;4861738;28;101999;-80
2022/05/30 04:37:51;;;;;;;;;1.00;1.00;;;;;18.27;45.19;97809.84;4867170;28;102069;-81
2022/05/30 04:40:19;;;;;;;;;1.00;1.00;;;;;18.29;44.95;97815.84;4857793;28;108344;-80
2022/05/30 04:42:46;;;;;;;;;1.33;1.00;;;;;18.27;44.84;97807.09;4867990;28;101802;-81
2022/05/30 04:45:14;;;;;;;;;0.00;0.00;;;;;18.26;44.76;97805.44;4861902;28;101830;-80
2022/05/30 04:47:41;;;;;;;;;1.33;1.00;;;;;18.25;45.23;97810.09;4866010;28;103747;-80
2022/05/30 04:50:13;;;;;;;;;1.00;1.00;;;;;18.24;44.80;97807.63;4861596;28;104341;-80
2022/05/30 04:52:41;;;;;;;;;1.00;0.67;;;;;18.23;45.13;97816.94;4868193;28;101936;-80
2022/05/30 04:55:09;;;;;;;;;1.33;1.00;;;;;18.23;45.50;97806.00;4865679;28;103646;-81
2022/05/30 04:57:42;;;;;;;;;0.00;0.00;;;;;18.23;44.99;97809.56;4862620;28;101826;-80
2022/05/30 05:00:11;;;;;;;;;1.33;1.33;;;;;18.24;44.84;97811.16;4861875;28;103833;-80
2022/05/30 05:02:38;;;;;;;;;1.00;1.00;;;;;18.26;44.54;97805.44;4849875;28;102045;-80
2022/05/30 05:05:06;;;;;;;;;0.00;0.00;;;;;18.25;44.43;97821.03;4844865;28;102012;-80
2022/05/30 05:07:49;;;;;;;;;1.67;1.67;;;;;18.24;45.28;97813.91;4863095;28;101815;-80
2022/05/30 05:10:55;;;;;;;;;0.00;0.00;;;;;18.26;45.29;97817.22;4863329;28;109025;-80
2022/05/30 05:13:22;;;;;;;;;1.00;1.00;;;;;18.27;45.05;97818.03;4858427;28;102212;-80
2022/05/30 05:15:49;;;;;;;;;0.00;0.00;;;;;18.26;44.96;97824.59;4866306;28;108984;-80
2022/05/30 05:18:16;;;;;;;;;1.00;1.00;;;;;18.22;44.66;97820.75;4849566;28;102041;-80
2022/05/30 05:20:43;;;;;;;;;1.00;1.00;;;;;18.22;45.03;97820.75;4861603;28;103457;-80
2022/05/30 05:23:11;;;;;;;;;2.00;2.00;;;;;18.25;44.98;97817.47;4865547;28;101913;-79
2022/05/30 05:25:39;;;;;;;;;1.00;1.00;;;;;18.22;44.84;97820.75;4851243;28;101888;-80
2022/05/30 05:28:06;;;;;;;;;1.00;1.00;;;;;18.22;44.97;97818.03;4858887;28;101846;-80
2022/05/30 05:30:33;;;;;;;;;1.00;1.00;;;;;18.23;44.47;97825.16;4867485;28;103197;-80
2022/05/30 05:33:00;;;;;;;;;1.00;1.00;;;;;18.24;44.74;97826.78;4843758;28;102035;-80
2022/05/30 05:35:27;;;;;;;;;1.00;1.00;;;;;18.22;44.92;97827.06;4869610;28;102017;-80
2022/05/30 05:37:55;;;;;;;;;0.67;0.67;;;;;18.22;45.13;97829.78;4876839;28;101984;-79
2022/05/30 05:40:22;;;;;;;;;1.00;1.00;;;;;18.23;44.42;97823.25;4865984;28;107700;-80
2022/05/30 05:42:49;;;;;;;;;1.00;1.00;;;;;18.24;44.41;97829.50;4871462;28;102130;-80
2022/05/30 05:45:16;;;;;;;;;1.00;1.00;;;;;18.25;44.46;97828.41;4863543;28;101724;-80
2022/05/30 05:47:43;;;;;;;;;1.00;1.00;;;;;18.24;44.66;97824.84;4866888;28;101706;-80
2022/05/30 05:50:10;;;;;;;;;0.00;0.00;;;;;18.25;45.27;97836.63;4865864;28;104238;-80
2022/05/30 05:52:37;;;;;;;;;1.00;1.00;;;;;18.25;44.97;97828.41;4865759;28;101987;-80
2022/05/30 05:55:05;;;;;;;;;0.00;0.00;;;;;18.24;45.19;97840.44;4862641;28;103555;-79
2022/05/30 05:57:32;;;;;;;;;0.67;0.67;;;;;18.24;44.42;97829.50;4854634;28;102174;-80
2022/05/30 05:59:59;;;;;;;;;1.00;1.00;;;;;18.24;45.19;97827.59;4865240;28;103412;-80
2022/05/30 06:02:27;;;;;;;;;1.67;0.00;;;;;18.23;44.58;97838.84;4867744;28;104122;-78
2022/05/30 06:04:54;;;;;;;;;0.00;0.00;;;;;18.21;44.92;97841.81;4867920;28;101802;-80
2022/05/30 06:07:21;;;;;;;;;1.00;1.00;;;;;18.23;45.07;97834.19;4866911;28;102068;-80
2022/05/30 06:09:48;;;;;;;;;1.00;1.00;;;;;18.26;44.65;97839.09;4868270;28;103441;-80
2022/05/30 06:12:15;;;;;;;;;1.00;1.00;;;;;18.27;44.33;97835.28;4866407;28;101994;-79
2022/05/30 06:14:42;;;;;;;;;1.00;1.00;;;;;18.27;44.64;97843.50;4866700;28;108180;-79
2022/05/30 06:17:09;;;;;;;;;1.00;1.00;;;;;18.29;44.56;97843.22;4861084;28;103442;-80
2022/05/30 06:19:36;;;;;;;;;1.00;1.00;;;;;18.29;44.42;97848.69;4854049;28;103412;-80
2022/05/30 06:22:03;;;;;;;;;0.33;0.33;;;;;18.29;45.16;97845.94;4867946;28;101671;-80
2022/05/30 06:24:30;;;;;;;;;0.67;0.67;;;;;18.30;44.74;97861.28;4869213;28;102101;-80
2022/05/30 06:26:57;;;;;;;;;2.00;1.00;;;;;18.21;44.83;97847.28;4876327;28;102255;-80
2022/05/30 06:29:24;;;;;;;;;0.00;0.00;;;;;18.26;45.16;97866.47;4869856;28;108054;-79
2022/05/30 06:31:51;;;;;;;;;0.67;0.67;;;;;18.28;45.00;97863.47;4871146;28;102235;-80
2022/05/30 06:34:18;;;;;;;;;1.00;1.00;;;;;18.27;45.07;97864.56;4869299;28;101715;-79
2022/05/30 06:36:45;;;;;;;;;1.00;1.00;;;;;18.27;45.15;97868.13;4865448;28;102177;-80
2022/05/30 06:39:12;;;;;;;;;1.00;1.00;;;;;18.27;44.83;97867.31;4869650;28;103396;-80
2022/05/30 06:41:40;;;;;;;;;0.00;0.00;;;;;18.29;44.72;97860.47;4846499;28;101939;-80
2022/05/30 06:44:07;;;;;;;;;0.33;0.33;;;;;18.28;44.36;97866.22;4851992;28;101903;-79
2022/05/30 06:46:34;;;;;;;;;0.67;0.67;;;;;18.29;44.79;97865.94;4871764;28;101812;-80
2022/05/30 06:49:03;;;;;;;;;1.00;1.00;;;;;18.29;44.61;97865.94;4873431;28;103481;-80
2022/05/30 06:51:30;;;;;;;;;1.00;1.00;;;;;18.31;44.35;97873.06;4873070;28;101712;-80
2022/05/30 06:53:57;;;;;;;;;1.00;1.00;;;;;18.29;44.51;97871.41;4877265;28;101810;-80
2022/05/30 06:56:26;;;;;;;;;0.67;0.67;;;;;18.31;44.65;97876.63;4856388;28;102056;-79
2022/05/30 06:58:53;;;;;;;;;0.67;0.67;;;;;18.31;44.51;97890.31;4863539;28;104033;-80
2022/05/30 07:01:22;;;;;;;;;1.00;1.00;;;;;18.31;45.16;97890.31;4866312;28;102020;-80
2022/05/30 07:03:49;;;;;;;;;1.00;1.00;;;;;18.33;44.58;97888.09;4876573;28;102088;-80
2022/05/30 07:06:21;;;;;;;;;1.00;1.00;;;;;18.34;44.67;97894.41;4864339;28;102122;-80
2022/05/30 07:08:48;;;;;;;;;1.00;1.00;;;;;18.32;45.18;97889.22;4864378;28;103491;-80
2022/05/30 07:11:16;;;;;;;;;1.00;1.00;;;;;18.33;44.15;97893.59;4862954;28;102082;-80
2022/05/30 07:13:44;;;;;;;;;0.00;0.00;;;;;18.34;44.85;97889.75;4856016;28;102256;-80
2022/05/30 07:16:11;;;;;;;;;0.00;0.00;;;;;18.35;44.28;97894.16;4855689;28;102078;-80
2022/05/30 07:18:43;;;;;;;;;1.00;1.00;;;;;18.36;44.37;97895.81;4853010;28;103657;-80
2022/05/30 07:21:12;;;;;;;;;1.67;1.00;;;;;18.37;44.38;97891.16;4859350;28;110235;-80
2022/05/30 07:23:39;;;;;;;;;1.00;1.00;;;;;18.38;44.43;97895.50;4866575;28;102083;-79
2022/05/30 07:26:16;;;;;;;;;1.00;1.00;;;;;18.36;44.44;97895.81;4865115;28;102356;-80
2022/05/30 07:28:44;;;;;;;;;1.00;1.00;;;;;18.36;44.75;97898.53;4854234;28;103518;-80
2022/05/30 07:31:13;;;;;;;;;1.00;1.00;;;;;18.37;44.46;97891.16;4850909;28;101831;-80
2022/05/30 07:33:43;;;;;;;;;1.33;1.33;;;;;18.36;44.57;97895.81;4869768;28;102188;-80
2022/05/30 07:36:16;;;;;;;;;1.00;1.00;;;;;18.35;44.31;97891.41;4858110;28;102412;-80
2022/05/30 07:38:43;;;;;;;;;1.00;1.00;;;;;18.36;44.26;97882.13;4856766;28;103515;-80
2022/05/30 07:41:10;;;;;;;;;1.00;1.00;;;;;18.35;44.83;97880.47;4865751;28;101905;-80
2022/05/30 07:43:37;;;;;;;;;0.00;0.00;;;;;18.38;44.70;97887.31;4867776;28;104565;-79
2022/05/30 07:46:06;;;;;;;;;0.00;0.00;;;;;18.40;44.37;97891.44;4866350;28;102118;-79
2022/05/30 07:48:34;;;;;;;;;0.00;0.00;;;;;18.41;44.87;97884.88;4872413;28;103796;-79
2022/05/30 07:51:01;;;;;;;;;1.00;1.00;;;;;18.42;44.66;97894.72;4871280;28;101986;-79
2022/05/30 07:53:28;;;;;;;;;1.67;0.67;;;;;18.43;44.62;97890.88;4864994;28;101915;-79
2022/05/30 07:55:55;;;;;;;;;1.00;1.00;;;;;18.44;44.38;97905.41;4867001;28;101877;-80
2022/05/30 07:58:22;;;;;;;;;0.67;0.67;;;;;18.44;44.35;97905.41;4868717;28;103348;-79
2022/05/30 08:00:51;;;;;;;;;1.00;1.00;;;;;18.44;45.02;97911.69;4863005;28;101635;-79
2022/05/30 08:03:18;;;;;;;;;0.00;0.00;;;;;18.43;44.98;97904.56;4866387;28;103767;-80
2022/05/30 08:05:47;;;;;;;;;1.00;1.00;;;;;18.43;44.48;97907.31;4863766;28;101821;-80
2022/05/30 08:08:15;;;;;;;;;1.00;1.00;;;;;18.43;44.12;97910.06;4862271;28;103595;-80
2022/05/30 08:10:42;;;;;;;;;2.00;1.00;;;;;18.42;44.24;97913.88;4850888;28;102096;-79
2022/05/30 08:13:08;;;;;;;;;1.00;1.00;;;;;18.43;44.16;97926.47;4861070;28;102525;-80
2022/05/30 08:15:35;;;;;;;;;0.00;0.00;;;;;18.43;44.47;97920.16;4864085;28;101870;-79
2022/05/30 08:18:02;;;;;;;;;1.00;1.00;;;;;18.44;44.95;97919.91;4866255;28;103326;-80
2022/05/30 08:20:30;;;;;;;;;1.00;1.00;;;;;18.44;44.45;97919.91;4871471;28;101840;-80
2022/05/30 08:22:57;;;;;;;;;1.00;1.00;;;;;18.43;44.36;97926.47;4868913;28;102012;-79
2022/05/30 08:25:24;;;;;;;;;2.00;1.00;;;;;18.43;44.72;97923.75;4872506;28;104276;-80
2022/05/30 08:27:51;;;;;;;;;1.00;1.00;;;;;18.45;44.91;97927.03;4863791;28;103487;-80
2022/05/30 08:30:19;;;;;;;;;1.00;1.00;;;;;18.45;44.22;97931.69;4861131;28;101825;-80
2022/05/30 08:32:46;;;;;;;;;1.00;1.00;;;;;18.46;44.62;97933.34;4864384;28;101643;-80
2022/05/30 08:35:16;;;;;;;;;1.00;1.00;;;;;18.44;44.25;97938.25;4876374;28;101759;-79
2022/05/30 08:37:43;;;;;;;;;1.00;1.00;;;;;18.45;44.41;97928.94;4863869;28;103365;-80
2022/05/30 08:43:03;;;;;;;;;0.67;0.67;;;;;18.45;44.92;97940.72;4837323;28;102104;-80
2022/05/30 08:45:31;;;;;;;;;0.00;0.00;;;;;18.45;44.18;97945.38;4850936;28;102227;-80
2022/05/30 08:47:58;;;;;;;;;1.33;1.00;;;;;18.44;44.46;97941.81;4854247;28;103364;-79
2022/05/30 08:50:58;;;;;;;;;1.00;1.00;;;;;18.46;44.56;97947.81;4852147;28;101734;-80
2022/05/30 08:53:37;;;;;;;;;2.00;2.00;;;;;18.46;44.63;97953.31;4829102;28;102717;-79
2022/05/30 08:56:13;;;;;;;;;1.00;1.00;;;;;18.48;44.31;97955.78;4831637;28;102183;-80
2022/05/30 08:59:07;;;;;;;;;1.00;1.00;;;;;18.47;44.74;97959.59;4829540;28;109030;-79
2022/05/30 09:01:42;;;;;;;;;0.33;0.33;;;;;18.47;44.66;97954.97;4854509;28;102182;-80
2022/05/30 09:04:22;;;;;;;;;1.00;1.00;;;;;18.48;44.45;97956.59;4814068;28;102054;-80
2022/05/30 09:07:00;;;;;;;;;1.00;1.00;;;;;18.49;44.16;97955.53;4821546;28;101858;-79
2022/05/30 09:09:45;;;;;;;;;1.00;1.00;;;;;18.49;44.18;97957.44;4854003;28;103412;-80
2022/05/30 09:12:17;;;;;;;;;0.00;0.00;;;;;18.49;44.30;97958.25;4835731;28;102063;-79
2022/05/30 09:14:46;;;;;;;;;1.67;1.00;;;;;18.51;44.72;97952.50;4848069;28;101804;-80
2022/05/30 09:17:18;;;;;;;;;0.33;0.00;;;;;18.50;44.45;97954.44;4814786;28;101813;-79
2022/05/30 09:19:45;;;;;;;;;1.00;1.00;;;;;18.51;44.92;97957.97;4849106;28;103482;-80
2022/05/30 09:22:11;;;;;;;;;1.00;1.00;;;;;18.51;44.58;97956.06;4834595;28;101941;-79
2022/05/30 09:24:38;;;;;;;;;1.00;1.00;;;;;18.51;44.32;97945.13;4838203;28;102206;-79
2022/05/30 09:27:12;;;;;;;;;1.00;1.00;;;;;18.53;44.66;97953.09;4852290;28;102514;-80
2022/05/30 09:29:49;;;;;;;;;1.00;1.00;;;;;18.51;44.23;97964.28;4846997;28;103567;-80
2022/05/30 09:32:47;;;;;;;;;1.00;1.00;;;;;18.53;44.17;97966.78;4853634;28;101644;-79
2022/05/30 09:35:41;;;;;;;;;1.00;1.00;;;;;18.51;44.18;97972.50;4839953;28;102217;-80
2022/05/30 09:38:21;;;;;;;;;0.00;0.00;;;;;18.53;44.72;97980.47;4846439;28;101818;-80
2022/05/30 09:40:54;;;;;;;;;1.00;1.00;;;;;18.52;44.98;97984.28;4853431;28;103427;-80
2022/05/30 09:43:26;;;;;;;;;1.00;1.00;;;;;18.52;44.62;97979.63;4855133;28;101819;-80
2022/05/30 09:45:54;;;;;;;;;1.00;1.00;;;;;18.53;44.72;97978.56;4869610;28;101985;-80
2022/05/30 09:48:21;;;;;;;;;1.00;1.00;;;;;18.53;44.58;97986.78;4871846;28;102185;-80
2022/05/30 09:50:50;;;;;;;;;1.00;1.00;;;;;18.54;44.29;97993.91;4872301;28;103408;-80
2022/05/30 09:53:41;;;;;;;;;1.00;1.00;;;;;18.54;44.18;97991.19;4870104;28;104182;-80
2022/05/30 09:56:10;;;;;;;;;1.00;1.00;;;;;18.55;44.31;97995.53;4861807;28;102099;-77
2022/05/30 09:59:27;;;;;;;;;1.00;1.00;;;;;18.56;44.86;97994.47;4845605;28;103978;-77
2022/05/30 10:01:54;;;;;;;;;1.00;1.00;;;;;18.56;44.33;97997.19;4832138;28;108560;-79
2022/05/30 10:04:35;;;;;;;;;1.00;1.00;;;;;18.58;44.23;97988.72;4872473;28;102143;-79
2022/05/30 10:07:17;;;;;;;;;1.00;1.00;;;;;18.58;44.68;97997.75;4871006;28;104244;-80
2022/05/30 10:09:54;;;;;;;;;0.00;0.00;;;;;18.60;43.88;97992.00;4872957;28;102713;-79
2022/05/30 10:12:35;;;;;;;;;1.00;1.00;;;;;18.61;44.17;97996.41;4868988;28;103349;-79
2022/05/30 10:15:22;;;;;;;;;2.00;1.00;;;;;18.62;44.55;98006.25;4867670;28;102043;-80
2022/05/30 10:17:50;;;;;;;;;1.67;1.67;;;;;18.62;43.85;97996.13;4866976;28;101651;-80
2022/05/30 10:21:00;;;;;;;;;0.67;0.67;;;;;18.62;44.67;97998.88;4833404;28;102020;-80
2022/05/30 10:30:02;;;;;;;;;1.00;1.00;;;;;18.65;44.35;98000.25;4869654;28;101923;-80
2022/05/30 10:32:34;;;;;;;;;2.00;1.00;;;;;18.64;44.58;97993.94;4871850;28;103390;-80
2022/05/30 10:35:09;;;;;;;;;1.00;1.00;;;;;18.65;44.51;98003.81;4839238;28;103543;-80
2022/05/30 10:37:51;;;;;;;;;0.33;0.33;;;;;18.65;44.58;98001.06;4872434;28;101647;-79
2022/05/30 10:40:41;;;;;;;;;1.00;1.00;;;;;18.67;44.38;98006.28;4860258;28;101806;-80
2022/05/30 10:43:10;;;;;;;;;1.00;1.00;;;;;18.67;44.33;97990.69;4870945;28;101852;-80
2022/05/30 10:45:45;;;;;;;;;1.00;1.00;;;;;18.69;44.49;97995.88;4854959;28;108276;-80
2022/05/30 10:48:35;;;;;;;;;1.00;1.00;;;;;18.70;44.35;97997.53;4850104;28;102026;-80
2022/05/30 10:51:08;;;;;;;;;1.00;1.00;;;;;18.69;43.97;97999.44;4860868;28;101743;-79
2022/05/30 10:53:40;;;;;;;;;1.00;1.00;;;;;18.70;44.11;97992.06;4869159;28;101755;-79
2022/05/30 10:56:19;;;;;;;;;1.00;1.00;;;;;18.69;43.93;97996.69;4852019;28;109122;-80
2022/05/30 10:59:28;;;;;;;;;1.00;1.00;;;;;18.70;44.37;97987.41;4869272;28;101804;-80
2022/05/30 11:02:12;;;;;;;;;2.00;1.00;;;;;18.70;43.90;97989.31;4866537;28;101901;-80
2022/05/30 11:05:02;;;;;;;;;1.00;1.00;;;;;18.71;43.82;97983.56;4863235;28;105010;-80
2022/05/30 11:07:38;;;;;;;;;0.33;0.33;;;;;18.73;44.48;97985.22;4852593;28;108094;-80
2022/05/30 11:10:07;;;;;;;;;1.00;1.00;;;;;18.71;43.84;97989.06;4859687;28;102016;-80
2022/05/30 11:12:39;;;;;;;;;1.00;1.00;;;;;18.72;44.11;97989.88;4868629;28;102546;-80
2022/05/30 11:15:18;;;;;;;;;1.00;1.00;;;;;18.73;44.45;97990.72;4853923;28;101842;-79
2022/05/30 11:18:09;;;;;;;;;1.33;1.33;;;;;18.76;44.40;98001.13;4842085;28;108533;-80
2022/05/30 11:20:40;;;;;;;;;0.33;0.33;;;;;18.76;44.35;98001.13;4855829;28;101963;-80
2022/05/30 11:23:07;;;;;;;;;0.67;0.67;;;;;18.75;44.31;97994.81;4836838;28;101884;-80
2022/05/30 11:25:52;;;;;;;;;1.67;1.00;;;;;18.76;44.32;97996.47;4869353;28;101804;-80
2022/05/30 11:28:42;;;;;;;;;1.00;1.00;;;;;18.77;44.33;98000.88;4872859;28;107817;-80
2022/05/30 11:31:19;;;;;;;;;1.00;1.00;;;;;18.76;44.25;97996.47;4842862;28;101847;-79
2022/05/30 11:33:59;;;;;;;;;0.33;0.33;;;;;18.78;44.04;98002.47;4873068;28;102060;-80
2022/05/30 11:36:26;;;;;;;;;1.00;1.00;;;;;18.78;44.11;98005.22;4875262;28;101855;-80
2022/05/30 11:39:16;;;;;;;;;1.00;1.00;;;;;18.79;43.88;98006.06;4871710;28;103292;-80
2022/05/30 11:41:55;;;;;;;;;1.00;1.00;;;;;18.79;44.37;97995.91;4867346;28;101947;-80
2022/05/30 11:44:50;;;;;;;;;0.00;0.00;;;;;18.81;43.75;98009.34;4870953;28;102140;-80
2022/05/30 11:47:30;;;;;;;;;1.00;1.00;;;;;18.82;43.99;98006.34;4868785;28;102373;-79
2022/05/30 11:50:07;;;;;;;;;0.00;0.00;;;;;18.83;43.98;98009.91;4871389;28;103561;-80
2022/05/30 11:52:48;;;;;;;;;1.00;1.00;;;;;18.81;43.67;98001.97;4836372;28;102047;-80
2022/05/30 11:55:26;;;;;;;;;1.00;1.00;;;;;18.83;43.91;98012.63;4854351;28;102063;-80